createdAt,value
2017-10-11T00:05:59.436Z,10.00
2017-10-11T00:11:02.142Z,11.27
2017-10-11T00:16:06.328Z,11.20
2017-10-11T00:26:16.073Z,10.10
2017-10-11T00:31:20.530Z,9.77
2017-10-11T00:36:24.839Z,9.97
2017-10-11T00:41:27.942Z,9.27
2017-10-11T00:46:34.101Z,10.60
2017-10-11T00:51:37.488Z,10.33
2017-10-11T00:56:40.898Z,10.87
2017-10-11T01:01:44.399Z,10.27
2017-10-11T01:06:47.121Z,10.57
2017-10-11T01:11:50.027Z,11.17
2017-10-11T01:16:52.914Z,9.57
2017-10-11T01:21:57.597Z,15.60
2017-10-11T01:27:01.237Z,10.87
2017-10-11T01:32:05.525Z,11.37
2017-10-11T01:37:08.922Z,10.40
2017-10-11T01:42:11.802Z,10.87
2017-10-11T01:47:17.847Z,11.17
2017-10-11T01:52:21.173Z,10.80
2017-10-11T02:02:32.201Z,11.37
2017-10-11T02:07:35.649Z,10.27
2017-10-11T02:12:40.780Z,11.80
2017-10-11T02:17:44.144Z,11.07
2017-10-11T02:22:48.530Z,11.13
2017-10-11T02:27:51.933Z,10.07
2017-10-11T02:32:55.011Z,9.40
2017-10-11T02:37:58.422Z,10.00
2017-10-11T02:43:01.438Z,9.00
2017-10-11T02:48:05.606Z,10.13
2017-10-11T02:53:09.904Z,9.67
2017-10-11T02:58:14.046Z,10.07
2017-10-11T03:08:23.615Z,10.03
2017-10-11T03:13:26.611Z,9.80
2017-10-11T03:18:29.971Z,8.90
2017-10-11T03:23:33.343Z,10.33
2017-10-11T03:28:36.733Z,9.23
2017-10-11T03:33:40.164Z,9.20
2017-10-11T03:38:43.390Z,7.80
2017-10-11T03:43:47.069Z,8.40
2017-10-11T03:48:51.292Z,7.17
2017-10-11T03:58:58.948Z,7.83
2017-10-11T04:04:02.080Z,7.90
2017-10-11T04:09:05.028Z,7.33
2017-10-11T04:14:08.316Z,7.97
2017-10-11T04:19:11.587Z,7.20
2017-10-11T04:24:14.609Z,7.17
2017-10-11T04:34:27.587Z,7.80
2017-10-11T04:39:31.100Z,8.20
2017-10-11T04:44:34.809Z,8.00
2017-10-11T04:49:38.196Z,8.23
2017-10-11T04:54:41.608Z,6.87
2017-10-11T04:59:44.520Z,7.10
2017-10-11T05:04:47.355Z,7.03
2017-10-11T05:09:51.496Z,6.77
2017-10-11T05:14:54.298Z,7.67
2017-10-11T05:19:57.144Z,6.53
2017-10-11T05:25:01.310Z,7.53
2017-10-11T05:30:04.608Z,8.87
2017-10-11T05:35:07.679Z,7.03
2017-10-11T05:40:11.117Z,8.30
2017-10-11T05:45:15.333Z,7.37
2017-10-11T05:50:18.298Z,7.93
2017-10-11T05:55:21.619Z,8.77
2017-10-11T06:00:25.979Z,7.80
2017-10-11T06:05:30.286Z,8.27
2017-10-11T06:10:34.503Z,8.43
2017-10-11T06:15:38.860Z,8.90
2017-10-11T06:20:43.097Z,7.80
2017-10-11T06:25:45.938Z,8.67
2017-10-11T06:30:49.466Z,8.60
2017-10-11T06:35:52.811Z,8.00
2017-10-11T06:40:56.191Z,8.20
2017-10-11T06:45:58.838Z,8.00
2017-10-11T06:51:02.222Z,7.23
2017-10-11T06:56:08.540Z,7.80
2017-10-11T07:01:11.873Z,7.40
2017-10-11T07:06:17.895Z,8.50
2017-10-11T07:11:20.684Z,7.10
2017-10-11T07:16:26.752Z,8.07
2017-10-11T07:21:31.795Z,6.37
2017-10-11T07:26:35.289Z,7.13
2017-10-11T07:31:38.594Z,7.77
2017-10-11T07:36:41.912Z,7.40
2017-10-11T07:41:47.913Z,6.97
2017-10-11T07:46:51.285Z,7.43
2017-10-11T07:51:55.512Z,7.00
2017-10-11T07:56:59.910Z,7.50
2017-10-11T08:02:03.205Z,5.90
2017-10-11T08:07:08.243Z,7.40
2017-10-11T08:12:11.606Z,6.40
2017-10-11T08:17:15.042Z,6.63
2017-10-11T08:22:18.379Z,7.00
2017-10-11T08:27:21.338Z,6.37
2017-10-11T08:32:24.185Z,9.20
2017-10-11T08:37:26.844Z,6.33
2017-10-11T08:42:29.503Z,6.73
2017-10-11T08:47:32.151Z,7.10
2017-10-11T08:52:35.528Z,7.60
2017-10-11T08:57:38.154Z,7.70
2017-10-11T09:02:41.535Z,6.53
2017-10-11T09:07:44.806Z,6.30
2017-10-11T09:12:48.306Z,6.93
2017-10-11T09:17:51.642Z,6.17
2017-10-11T09:22:55.173Z,6.33
2017-10-11T09:27:58.477Z,6.43
2017-10-11T09:33:01.241Z,6.30
2017-10-11T09:38:07.406Z,6.80
2017-10-11T09:43:11.674Z,6.40
2017-10-11T09:48:15.300Z,6.47
2017-10-11T09:53:18.706Z,6.10
2017-10-11T09:58:22.947Z,6.20
2017-10-11T10:03:25.696Z,5.90
2017-10-11T10:08:28.664Z,6.00
2017-10-11T10:13:31.381Z,6.17
2017-10-11T10:18:34.742Z,4.87
2017-10-11T10:23:38.337Z,5.30
2017-10-11T10:28:42.365Z,5.87
2017-10-11T10:33:45.801Z,4.80
2017-10-11T10:38:51.860Z,5.10
2017-10-11T10:43:56.081Z,5.63
2017-10-11T10:48:59.040Z,5.20
2017-10-11T10:54:03.089Z,4.33
2017-10-11T10:59:06.379Z,4.20
2017-10-11T11:04:09.789Z,4.47
2017-10-11T11:09:14.024Z,4.40
2017-10-11T11:19:25.098Z,4.00
2017-10-11T11:24:27.771Z,6.80
2017-10-11T11:29:31.480Z,3.80
2017-10-11T11:34:36.114Z,3.90
2017-10-11T11:39:40.366Z,3.77
2017-10-11T11:44:43.682Z,3.60
2017-10-11T11:49:47.023Z,3.63
2017-10-11T11:54:50.356Z,4.07
2017-10-11T11:59:54.458Z,2.40
2017-10-11T12:04:58.574Z,2.83
2017-10-11T12:10:01.508Z,2.50
2017-10-11T12:15:04.772Z,2.80
2017-10-11T12:20:08.938Z,2.90
2017-10-11T12:25:13.126Z,3.70
2017-10-11T12:30:16.508Z,2.60
2017-10-11T12:35:19.302Z,2.10
2017-10-11T12:40:23.557Z,3.80
2017-10-11T12:45:27.721Z,2.73
2017-10-11T12:50:34.432Z,2.37
2017-10-11T12:55:38.656Z,2.10
2017-10-11T13:00:41.528Z,2.03
2017-10-11T13:05:44.905Z,2.70
2017-10-11T13:10:47.779Z,2.50
2017-10-11T13:15:50.776Z,2.50
2017-10-11T13:20:55.117Z,2.27
2017-10-11T13:25:59.275Z,2.20
2017-10-11T13:31:04.501Z,2.60
2017-10-11T13:36:07.885Z,2.30
2017-10-11T13:41:10.603Z,2.40
2017-10-11T13:46:14.930Z,2.23
2017-10-11T13:51:17.612Z,2.73
2017-10-11T13:56:21.936Z,2.00
2017-10-11T14:01:25.467Z,2.90
2017-10-11T14:06:30.516Z,2.20
2017-10-11T14:11:36.498Z,2.00
2017-10-11T14:21:50.039Z,1.70
2017-10-11T14:26:53.390Z,1.80
2017-10-11T14:31:57.662Z,1.83
2017-10-11T14:37:00.966Z,2.17
2017-10-11T14:42:04.443Z,1.77
2017-10-11T14:47:07.854Z,1.80
2017-10-11T14:52:10.786Z,1.77
2017-10-11T14:57:13.685Z,1.70
2017-10-11T15:02:17.239Z,1.90
2017-10-11T15:07:20.499Z,1.87
2017-10-11T15:17:30.213Z,2.97
2017-10-11T15:22:33.522Z,1.53
2017-10-11T15:27:36.915Z,2.30
2017-10-11T15:32:39.867Z,2.03
2017-10-11T15:37:43.995Z,1.60
2017-10-11T15:42:47.425Z,1.90
2017-10-11T15:47:50.327Z,2.20
2017-10-11T15:52:54.657Z,2.30
2017-10-11T15:57:58.159Z,2.40
2017-10-11T16:03:01.129Z,2.43
2017-10-11T16:08:04.763Z,2.30
2017-10-11T16:13:09.025Z,2.23
2017-10-11T16:18:11.964Z,2.60
2017-10-11T16:23:14.875Z,2.00
2017-10-11T16:28:19.097Z,2.37
2017-10-11T16:33:22.046Z,7.63
2017-10-11T16:38:25.366Z,5.73
2017-10-11T16:43:29.643Z,4.50
2017-10-11T16:48:35.745Z,3.40
2017-10-11T16:53:40.034Z,2.60
2017-10-11T16:58:44.447Z,2.90
2017-10-11T17:03:51.198Z,3.20
2017-10-11T17:08:54.092Z,3.37
2017-10-11T17:13:56.976Z,3.53
2017-10-11T17:18:59.617Z,3.00
2017-10-11T17:24:02.998Z,3.13
2017-10-11T17:29:05.844Z,3.07
2017-10-11T17:34:08.694Z,2.77
2017-10-11T17:39:12.180Z,3.10
2017-10-11T17:44:18.314Z,2.73
2017-10-11T17:49:21.815Z,3.13
2017-10-11T17:54:24.739Z,4.93
2017-10-11T17:59:28.223Z,11.53
2017-10-11T18:04:31.552Z,7.90
2017-10-11T18:09:34.985Z,5.63
2017-10-11T18:14:37.705Z,5.97
2017-10-11T18:19:40.850Z,4.40
2017-10-11T18:24:44.248Z,9.47
2017-10-11T18:29:47.152Z,12.57
2017-10-11T18:34:50.896Z,8.10
2017-10-11T18:39:53.896Z,5.60
2017-10-11T18:44:57.962Z,6.03
2017-10-11T18:50:01.440Z,12.50
2017-10-11T18:55:04.332Z,7.23
2017-10-11T19:00:10.374Z,4.83
2017-10-11T19:05:13.184Z,3.47
2017-10-11T19:10:16.534Z,4.50
2017-10-11T19:15:20.174Z,4.93
2017-10-11T19:20:23.896Z,6.10
2017-10-11T19:25:27.291Z,5.37
2017-10-11T19:35:37.989Z,5.90
2017-10-11T19:40:41.693Z,7.00
2017-10-11T19:45:47.676Z,4.83
2017-10-11T19:50:52.150Z,3.67
2017-10-11T19:55:54.836Z,7.00
2017-10-11T20:00:57.666Z,12.80
2017-10-11T20:06:02.144Z,6.80
2017-10-11T20:11:06.479Z,6.10
2017-10-11T20:16:10.005Z,5.47
2017-10-11T20:21:15.131Z,4.90
2017-10-11T20:26:18.275Z,5.20
2017-10-11T20:31:22.570Z,5.23
2017-10-11T20:36:25.532Z,4.57
2017-10-11T20:41:30.188Z,4.80
2017-10-11T20:46:33.904Z,5.93
2017-10-11T20:51:38.949Z,4.80
2017-10-11T20:56:43.161Z,4.50
2017-10-11T21:01:46.574Z,5.27
2017-10-11T21:06:51.419Z,5.10
2017-10-11T21:11:54.737Z,5.33
2017-10-11T21:16:59.028Z,4.60
2017-10-11T21:22:03.183Z,5.20
2017-10-11T21:27:06.848Z,4.30
2017-10-11T21:32:10.599Z,4.80
2017-10-11T21:37:14.815Z,4.37
2017-10-11T21:42:18.338Z,5.10
2017-10-11T21:47:21.949Z,4.90
2017-10-11T21:52:24.869Z,5.47
2017-10-11T21:57:27.779Z,5.10
2017-10-11T22:02:32.864Z,4.90
2017-10-11T22:07:36.252Z,5.43
2017-10-11T22:12:39.515Z,6.07
2017-10-11T22:17:43.623Z,4.50
2017-10-11T22:22:48.584Z,5.67
2017-10-11T22:27:51.596Z,4.53
2017-10-11T22:32:55.011Z,4.63
2017-10-11T22:43:04.817Z,4.40
2017-10-11T22:53:14.472Z,4.23
2017-10-11T22:58:18.870Z,4.37
2017-10-11T23:03:22.436Z,3.90
2017-10-11T23:08:28.561Z,6.20
2017-10-11T23:13:31.412Z,6.03
2017-10-11T23:18:34.817Z,7.53
2017-10-11T23:23:37.705Z,8.23
2017-10-11T23:28:41.821Z,8.70
2017-10-11T23:33:45.096Z,9.40
2017-10-11T23:38:48.808Z,9.33
2017-10-11T23:43:53.266Z,8.00
2017-10-11T23:48:57.614Z,7.57
2017-10-11T23:54:01.964Z,7.20
2017-10-11T23:59:06.508Z,6.00
